Time;durP1;ratioP1;P1;durP2;ratioP2;P2;SDS_P1;SDS_P2;PMS_P1;PMS_P2;Temp;Humidity;BMP_temperature;BMP_pressure;BME280_temperature;BME280_humidity;BME280_pressure;Samples;Min_cycle;Max_cycle;Signal;HPM_P1;HPM_P2
2021/12/22 00:02:30;;;;;;;1.40;1.33;;;;;;;;;;5162543;27;20210;-65
2021/12/22 00:05:20;;;;;;;0.90;0.90;;;;;;;;;;5156071;27;20228;-64
2021/12/22 00:08:07;;;;;;;1.30;1.30;;;;;;;;;;5151916;27;20287;-64
2021/12/22 00:10:54;;;;;;;1.43;1.37;;;;;;;;;;5153966;27;20200;-64
2021/12/22 00:13:41;;;;;;;1.33;1.20;;;;;;;;;;5151343;27;20241;-65
2021/12/22 00:16:28;;;;;;;1.40;1.30;;;;;;;;;;5170325;27;20770;-64
2021/12/22 00:19:17;;;;;;;1.20;1.10;;;;;;;;;;5158357;27;20310;-64
2021/12/22 00:22:04;;;;;;;1.10;1.10;;;;;;;;;;5161211;27;20407;-64
2021/12/22 00:24:51;;;;;;;0.87;0.87;;;;;;;;;;5156048;27;20707;-64
2021/12/22 00:27:38;;;;;;;0.70;0.70;;;;;;;;;;5155796;27;20299;-64
2021/12/22 00:30:26;;;;;;;0.90;0.90;;;;;;;;;;5161684;27;20212;-64
2021/12/22 00:33:13;;;;;;;0.73;0.73;;;;;;;;;;5153647;27;20230;-64
2021/12/22 00:36:02;;;;;;;0.80;0.80;;;;;;;;;;5154152;27;20204;-64
2021/12/22 00:38:50;;;;;;;0.93;0.90;;;;;;;;;;5152211;27;20247;-64
2021/12/22 00:41:37;;;;;;;0.87;0.87;;;;;;;;;;5161860;27;20196;-64
2021/12/22 00:44:25;;;;;;;0.80;0.80;;;;;;;;;;5152590;27;20740;-64
2021/12/22 00:47:12;;;;;;;0.60;0.60;;;;;;;;;;5165732;27;20205;-64
2021/12/22 00:50:00;;;;;;;0.87;0.87;;;;;;;;;;5154222;27;20212;-64
2021/12/22 00:52:49;;;;;;;0.60;0.60;;;;;;;;;;5149993;27;20252;-64
2021/12/22 00:55:36;;;;;;;0.70;0.70;;;;;;;;;;5153225;27;20213;-66
2021/12/22 00:58:23;;;;;;;0.60;0.60;;;;;;;;;;5153753;27;20334;-64
2021/12/22 01:01:10;;;;;;;0.70;0.70;;;;;;;;;;5152518;27;20204;-64
2021/12/22 01:03:57;;;;;;;0.70;0.70;;;;;;;;;;5136005;27;20244;-64
2021/12/22 01:06:44;;;;;;;0.70;0.70;;;;;;;;;;5157961;27;20207;-65
2021/12/22 01:09:32;;;;;;;0.70;0.70;;;;;;;;;;5157259;27;20728;-64
2021/12/22 01:12:19;;;;;;;0.80;0.80;;;;;;;;;;5148072;27;20300;-64
2021/12/22 01:15:11;;;;;;;0.70;0.70;;;;;;;;;;5159956;27;20683;-64
2021/12/22 01:18:02;;;;;;;0.60;0.60;;;;;;;;;;5151629;27;20209;-66
2021/12/22 01:21:01;;;;;;;0.63;0.63;;;;;;;;;;5155689;27;20656;-64
2021/12/22 01:24:00;;;;;;;0.67;0.67;;;;;;;;;;5156303;27;20667;-64
2021/12/22 01:26:53;;;;;;;0.90;0.90;;;;;;;;;;5149732;27;20254;-64
2021/12/22 01:29:40;;;;;;;0.80;0.80;;;;;;;;;;5152621;27;20220;-65
2021/12/22 01:32:27;;;;;;;0.80;0.80;;;;;;;;;;5155902;27;20253;-64
2021/12/22 01:35:16;;;;;;;0.87;0.87;;;;;;;;;;5161185;27;20213;-64
2021/12/22 01:38:04;;;;;;;0.73;0.73;;;;;;;;;;5149362;27;20273;-64
2021/12/22 01:40:52;;;;;;;1.03;0.80;;;;;;;;;;5151968;27;20239;-65
2021/12/22 01:43:40;;;;;;;0.97;0.97;;;;;;;;;;5151083;27;20647;-64
2021/12/22 01:49:51;;;;;;;0.87;0.87;;;;;;;;;;5157745;27;20210;-64
2021/12/22 01:52:38;;;;;;;0.93;0.93;;;;;;;;;;5156281;27;20727;-64
2021/12/22 01:55:36;;;;;;;0.93;0.93;;;;;;;;;;5170756;27;20204;-65
2021/12/22 01:58:33;;;;;;;0.90;0.90;;;;;;;;;;5149758;27;20215;-65
2021/12/22 02:01:22;;;;;;;0.63;0.63;;;;;;;;;;5148613;27;20201;-64
2021/12/22 02:04:12;;;;;;;0.80;0.80;;;;;;;;;;5142622;27;20346;-64
2021/12/22 02:06:59;;;;;;;0.77;0.77;;;;;;;;;;5158875;27;20555;-64
2021/12/22 02:10:04;;;;;;;0.80;0.80;;;;;;;;;;5155369;27;20204;-65
2021/12/22 02:12:53;;;;;;;0.70;0.70;;;;;;;;;;5141650;27;20587;-65
2021/12/22 02:15:41;;;;;;;0.73;0.73;;;;;;;;;;5159569;27;20297;-66
2021/12/22 02:18:31;;;;;;;0.60;0.60;;;;;;;;;;5156318;27;20707;-65
2021/12/22 02:21:22;;;;;;;0.80;0.80;;;;;;;;;;5150922;27;20198;-65
2021/12/22 02:24:09;;;;;;;0.80;0.80;;;;;;;;;;5157331;27;20204;-64
2021/12/22 02:27:03;;;;;;;0.73;0.73;;;;;;;;;;5153802;27;20236;-64
2021/12/22 02:29:58;;;;;;;1.00;1.00;;;;;;;;;;5168107;27;20268;-65
2021/12/22 02:33:08;;;;;;;1.00;1.00;;;;;;;;;;5155951;27;20212;-65
2021/12/22 02:36:09;;;;;;;1.00;1.00;;;;;;;;;;5156780;27;20197;-64
2021/12/22 02:39:00;;;;;;;1.07;1.07;;;;;;;;;;5158533;27;20204;-65
2021/12/22 02:41:46;;;;;;;1.00;1.00;;;;;;;;;;5151327;27;20234;-64
2021/12/22 02:44:33;;;;;;;1.00;1.00;;;;;;;;;;5148516;27;20329;-65
2021/12/22 02:47:26;;;;;;;1.07;1.07;;;;;;;;;;5133269;27;20240;-64
2021/12/22 02:50:16;;;;;;;0.97;0.97;;;;;;;;;;5149802;27;20205;-65
2021/12/22 02:53:07;;;;;;;1.10;1.10;;;;;;;;;;5148634;27;20316;-65
2021/12/22 02:56:01;;;;;;;1.43;0.80;;;;;;;;;;5150634;27;20737;-64
2021/12/22 02:58:59;;;;;;;1.03;0.93;;;;;;;;;;5152532;27;20212;-64
2021/12/22 03:02:11;;;;;;;0.80;0.80;;;;;;;;;;5148741;27;20303;-64
2021/12/22 03:04:58;;;;;;;0.73;0.73;;;;;;;;;;5135600;27;20220;-64
2021/12/22 03:07:47;;;;;;;1.10;1.10;;;;;;;;;;5149906;27;20665;-64
2021/12/22 03:10:34;;;;;;;1.00;1.00;;;;;;;;;;5145918;27;20212;-65
2021/12/22 03:13:24;;;;;;;0.80;0.80;;;;;;;;;;5142749;27;20307;-65
2021/12/22 03:16:11;;;;;;;0.70;0.70;;;;;;;;;;5161464;27;20208;-64
2021/12/22 03:18:58;;;;;;;0.80;0.80;;;;;;;;;;5153502;27;20289;-64
2021/12/22 03:21:47;;;;;;;0.57;0.57;;;;;;;;;;5130718;27;20243;-64
2021/12/22 03:24:36;;;;;;;1.57;0.80;;;;;;;;;;5155928;27;20203;-64
2021/12/22 03:27:24;;;;;;;0.80;0.80;;;;;;;;;;5154486;27;20683;-64
2021/12/22 03:30:15;;;;;;;0.80;0.80;;;;;;;;;;5144006;27;20205;-65
2021/12/22 03:33:02;;;;;;;0.70;0.70;;;;;;;;;;5158713;27;20312;-64
2021/12/22 03:35:49;;;;;;;0.77;0.77;;;;;;;;;;5151905;27;20633;-65
2021/12/22 03:38:36;;;;;;;0.70;0.70;;;;;;;;;;5169760;27;20212;-65
2021/12/22 03:41:23;;;;;;;0.80;0.80;;;;;;;;;;5150661;27;20307;-64
2021/12/22 03:44:11;;;;;;;0.53;0.53;;;;;;;;;;5140412;27;20334;-64
2021/12/22 03:47:00;;;;;;;0.60;0.60;;;;;;;;;;5151071;27;20204;-64
2021/12/22 03:49:47;;;;;;;0.60;0.60;;;;;;;;;;5148651;27;20340;-64
2021/12/22 03:52:34;;;;;;;0.60;0.60;;;;;;;;;;5147247;27;20261;-64
2021/12/22 03:55:21;;;;;;;0.50;0.50;;;;;;;;;;5165823;27;20248;-64
2021/12/22 03:58:08;;;;;;;0.70;0.70;;;;;;;;;;5149689;27;20299;-64
2021/12/22 04:00:56;;;;;;;0.50;0.50;;;;;;;;;;5159618;27;20219;-65
2021/12/22 04:03:48;;;;;;;0.63;0.63;;;;;;;;;;5157853;27;20778;-65
2021/12/22 04:06:35;;;;;;;0.50;0.50;;;;;;;;;;5151056;27;20236;-64
2021/12/22 04:09:27;;;;;;;0.60;0.60;;;;;;;;;;5162202;27;20238;-65
2021/12/22 04:12:14;;;;;;;0.87;0.53;;;;;;;;;;5150277;27;20200;-64
2021/12/22 04:15:00;;;;;;;0.60;0.60;;;;;;;;;;5149710;27;20287;-65
2021/12/22 04:17:48;;;;;;;0.57;0.57;;;;;;;;;;5133681;27;20223;-64
2021/12/22 04:20:37;;;;;;;0.57;0.57;;;;;;;;;;5159980;27;20200;-64
2021/12/22 04:23:23;;;;;;;0.50;0.50;;;;;;;;;;5150756;27;20539;-64
2021/12/22 04:26:12;;;;;;;0.70;0.70;;;;;;;;;;5133107;27;20200;-66
2021/12/22 04:28:59;;;;;;;0.50;0.50;;;;;;;;;;5156990;27;20200;-65
2021/12/22 04:31:46;;;;;;;0.60;0.60;;;;;;;;;;5152886;27;20288;-65
2021/12/22 04:34:33;;;;;;;0.90;0.90;;;;;;;;;;5156797;27;20267;-67
2021/12/22 04:37:22;;;;;;;0.90;0.90;;;;;;;;;;5147474;27;20205;-65
2021/12/22 04:40:10;;;;;;;0.50;0.50;;;;;;;;;;5137958;27;20304;-67
2021/12/22 04:42:57;;;;;;;0.80;0.80;;;;;;;;;;5140737;27;20269;-65
2021/12/22 04:45:44;;;;;;;0.70;0.70;;;;;;;;;;5148841;27;20205;-64
2021/12/22 04:48:34;;;;;;;0.80;0.80;;;;;;;;;;5150767;27;20653;-65
2021/12/22 04:51:26;;;;;;;0.63;0.63;;;;;;;;;;5169801;27;20208;-65
2021/12/22 04:54:19;;;;;;;0.80;0.77;;;;;;;;;;5155696;27;20215;-64
2021/12/22 04:57:06;;;;;;;0.80;0.80;;;;;;;;;;5152276;27;20287;-65
2021/12/22 04:59:53;;;;;;;0.80;0.80;;;;;;;;;;5169776;27;20773;-65
2021/12/22 05:02:40;;;;;;;0.63;0.63;;;;;;;;;;5156629;27;20727;-64
2021/12/22 05:05:28;;;;;;;0.90;0.80;;;;;;;;;;5165289;27;20709;-65
2021/12/22 05:08:16;;;;;;;0.70;0.70;;;;;;;;;;5153274;27;20212;-64
2021/12/22 05:11:04;;;;;;;0.60;0.60;;;;;;;;;;5148723;27;20207;-65
2021/12/22 05:13:51;;;;;;;0.53;0.53;;;;;;;;;;5151184;27;20248;-64
2021/12/22 05:16:45;;;;;;;0.73;0.73;;;;;;;;;;5151050;27;20265;-64
2021/12/22 05:19:32;;;;;;;0.73;0.73;;;;;;;;;;5151119;27;20587;-65
2021/12/22 05:22:19;;;;;;;0.73;0.73;;;;;;;;;;5151090;27;20245;-64
2021/12/22 05:25:07;;;;;;;0.50;0.50;;;;;;;;;;5164911;27;20200;-65
2021/12/22 05:27:56;;;;;;;0.87;0.87;;;;;;;;;;5151985;27;21749;-64
2021/12/22 05:30:46;;;;;;;0.70;0.70;;;;;;;;;;5146551;27;20299;-64
2021/12/22 05:33:33;;;;;;;0.50;0.50;;;;;;;;;;5151202;27;20232;-65
2021/12/22 05:36:20;;;;;;;0.70;0.70;;;;;;;;;;5151135;27;20752;-64
2021/12/22 05:39:07;;;;;;;0.73;0.73;;;;;;;;;;5170946;27;20273;-65
2021/12/22 05:41:54;;;;;;;1.00;1.00;;;;;;;;;;5155392;27;20240;-65
2021/12/22 05:44:42;;;;;;;0.70;0.70;;;;;;;;;;5150986;27;20736;-66
2021/12/22 05:47:29;;;;;;;0.70;0.70;;;;;;;;;;5151839;27;20207;-65
2021/12/22 05:50:16;;;;;;;0.53;0.53;;;;;;;;;;5150097;27;20230;-65
2021/12/22 05:53:04;;;;;;;0.60;0.60;;;;;;;;;;5150511;27;20305;-65
2021/12/22 05:55:51;;;;;;;0.70;0.70;;;;;;;;;;5170230;27;20280;-64
2021/12/22 05:58:38;;;;;;;0.73;0.73;;;;;;;;;;5152992;27;20239;-65
2021/12/22 06:01:27;;;;;;;0.57;0.57;;;;;;;;;;5163491;27;20730;-64
2021/12/22 06:04:13;;;;;;;0.50;0.50;;;;;;;;;;5162166;27;20227;-64
2021/12/22 06:07:00;;;;;;;0.60;0.60;;;;;;;;;;5152329;27;20285;-64
2021/12/22 06:09:47;;;;;;;0.50;0.50;;;;;;;;;;5156195;27;20611;-65
2021/12/22 06:12:34;;;;;;;0.60;0.60;;;;;;;;;;5150056;27;20224;-64
2021/12/22 06:15:21;;;;;;;0.33;0.33;;;;;;;;;;5148835;27;20264;-64
2021/12/22 06:18:10;;;;;;;0.60;0.60;;;;;;;;;;5135325;27;20241;-64
2021/12/22 06:20:58;;;;;;;0.50;0.50;;;;;;;;;;5149582;27;20211;-64
2021/12/22 06:23:45;;;;;;;0.37;0.37;;;;;;;;;;5150386;27;20208;-65
2021/12/22 06:26:32;;;;;;;0.50;0.50;;;;;;;;;;5133504;27;20201;-64
2021/12/22 06:29:20;;;;;;;0.40;0.40;;;;;;;;;;5158528;27;20235;-64
2021/12/22 06:32:08;;;;;;;0.70;0.70;;;;;;;;;;5154777;27;20242;-64
2021/12/22 06:34:56;;;;;;;0.97;0.70;;;;;;;;;;5168267;27;20649;-65
2021/12/22 06:37:44;;;;;;;0.70;0.70;;;;;;;;;;5154982;27;20204;-65
2021/12/22 06:40:31;;;;;;;0.53;0.53;;;;;;;;;;5146026;27;20292;-64
2021/12/22 06:43:18;;;;;;;0.60;0.60;;;;;;;;;;5152464;27;20719;-64
2021/12/22 06:46:05;;;;;;;0.70;0.70;;;;;;;;;;5153145;27;20204;-64
2021/12/22 06:48:52;;;;;;;0.40;0.40;;;;;;;;;;5146490;27;20680;-65
2021/12/22 06:51:40;;;;;;;0.50;0.50;;;;;;;;;;5161733;27;20604;-64
2021/12/22 06:54:27;;;;;;;0.60;0.60;;;;;;;;;;5152427;27;20271;-64
2021/12/22 06:57:15;;;;;;;0.70;0.70;;;;;;;;;;5139739;27;20284;-64
2021/12/22 07:00:05;;;;;;;0.50;0.50;;;;;;;;;;5150595;27;20204;-64
2021/12/22 07:02:53;;;;;;;0.50;0.50;;;;;;;;;;5149686;27;20697;-65
2021/12/22 07:05:40;;;;;;;1.13;0.50;;;;;;;;;;5152880;27;20251;-64
2021/12/22 07:08:28;;;;;;;0.50;0.50;;;;;;;;;;5161748;27;20261;-65
2021/12/22 07:11:15;;;;;;;0.60;0.60;;;;;;;;;;5148804;27;20285;-65
2021/12/22 07:14:02;;;;;;;0.60;0.60;;;;;;;;;;5139723;27;20224;-65
2021/12/22 07:16:49;;;;;;;0.53;0.53;;;;;;;;;;5149545;27;20286;-64
2021/12/22 07:19:36;;;;;;;0.37;0.37;;;;;;;;;;5150396;27;20287;-65
2021/12/22 07:22:23;;;;;;;0.50;0.50;;;;;;;;;;5150051;27;20299;-65
2021/12/22 07:25:14;;;;;;;0.50;0.50;;;;;;;;;;5155672;27;20191;-65
2021/12/22 07:28:01;;;;;;;0.60;0.60;;;;;;;;;;5154291;27;20209;-65
2021/12/22 07:30:48;;;;;;;0.57;0.57;;;;;;;;;;5166854;27;20701;-65
2021/12/22 07:33:35;;;;;;;0.57;0.57;;;;;;;;;;5147224;27;20268;-64
2021/12/22 07:36:22;;;;;;;0.53;0.53;;;;;;;;;;5152933;27;20285;-64
2021/12/22 07:39:09;;;;;;;0.50;0.50;;;;;;;;;;5152358;27;20254;-65
2021/12/22 07:41:57;;;;;;;0.60;0.60;;;;;;;;;;5153424;27;20683;-64
2021/12/22 07:44:44;;;;;;;0.60;0.60;;;;;;;;;;5150490;27;20239;-64
2021/12/22 07:47:31;;;;;;;0.60;0.60;;;;;;;;;;5165929;27;20211;-65
2021/12/22 07:50:18;;;;;;;1.17;0.60;;;;;;;;;;5149876;27;20335;-64
2021/12/22 07:53:05;;;;;;;0.57;0.57;;;;;;;;;;5149077;27;20341;-64
2021/12/22 07:55:53;;;;;;;0.50;0.50;;;;;;;;;;5150291;27;20589;-64
2021/12/22 07:58:42;;;;;;;0.50;0.50;;;;;;;;;;5146619;27;20301;-64
2021/12/22 08:01:30;;;;;;;0.57;0.57;;;;;;;;;;5162373;27;20240;-64
2021/12/22 08:04:17;;;;;;;0.63;0.63;;;;;;;;;;5162201;27;20240;-64
2021/12/22 08:07:04;;;;;;;0.50;0.50;;;;;;;;;;5150231;27;20287;-64
2021/12/22 08:09:51;;;;;;;0.67;0.67;;;;;;;;;;5141203;27;20322;-65
2021/12/22 08:12:38;;;;;;;0.60;0.60;;;;;;;;;;5148805;27;20289;-65
2021/12/22 08:15:27;;;;;;;0.50;0.50;;;;;;;;;;5149382;27;20321;-64
2021/12/22 08:18:14;;;;;;;2.30;0.80;;;;;;;;;;5167982;27;20231;-65
2021/12/22 08:21:01;;;;;;;0.70;0.70;;;;;;;;;;5149407;27;20249;-65
2021/12/22 08:23:47;;;;;;;0.70;0.70;;;;;;;;;;5151747;27;20204;-64
2021/12/22 08:26:34;;;;;;;1.53;0.60;;;;;;;;;;5162840;27;20200;-65
2021/12/22 08:29:21;;;;;;;0.80;0.80;;;;;;;;;;5151739;27;20196;-65
2021/12/22 08:32:10;;;;;;;0.60;0.60;;;;;;;;;;5140630;27;20914;-65
2021/12/22 08:34:57;;;;;;;0.80;0.80;;;;;;;;;;5170986;27;20625;-65
2021/12/22 08:40:48;;;;;;;0.70;0.70;;;;;;;;;;5151848;27;20263;-65
2021/12/22 08:43:35;;;;;;;0.80;0.80;;;;;;;;;;5158981;27;20244;-65
2021/12/22 08:46:23;;;;;;;1.07;1.07;;;;;;;;;;5156880;27;20204;-65
2021/12/22 08:49:11;;;;;;;0.77;0.70;;;;;;;;;;5164841;27;20825;-65
2021/12/22 08:51:58;;;;;;;0.87;0.87;;;;;;;;;;5168329;27;20256;-65
2021/12/22 08:54:45;;;;;;;1.07;1.07;;;;;;;;;;5151024;27;20297;-64
2021/12/22 08:57:34;;;;;;;0.80;0.80;;;;;;;;;;5166965;27;20228;-64
2021/12/22 09:00:21;;;;;;;1.70;0.77;;;;;;;;;;5154057;27;20572;-65
2021/12/22 09:03:08;;;;;;;0.77;0.63;;;;;;;;;;5150529;27;20236;-67
2021/12/22 09:05:56;;;;;;;0.93;0.90;;;;;;;;;;5145072;27;20236;-64
2021/12/22 09:08:44;;;;;;;0.93;0.93;;;;;;;;;;5153635;27;20201;-66
2021/12/22 09:11:31;;;;;;;0.80;0.80;;;;;;;;;;5153434;27;20288;-65
2021/12/22 09:14:20;;;;;;;0.70;0.70;;;;;;;;;;5139304;27;20224;-65
2021/12/22 09:17:07;;;;;;;1.07;0.80;;;;;;;;;;5150397;27;20237;-65
2021/12/22 09:19:54;;;;;;;0.90;0.90;;;;;;;;;;5148988;27;20200;-66
2021/12/22 09:22:42;;;;;;;2.47;1.10;;;;;;;;;;5168448;27;20208;-65
2021/12/22 09:25:29;;;;;;;0.80;0.63;;;;;;;;;;5158423;27;20291;-65
2021/12/22 09:28:16;;;;;;;2.23;0.90;;;;;;;;;;5156896;27;20292;-65
2021/12/22 09:31:05;;;;;;;0.67;0.67;;;;;;;;;;5169461;27;20220;-65
2021/12/22 09:33:53;;;;;;;0.70;0.70;;;;;;;;;;5156429;27;20200;-65
2021/12/22 09:36:42;;;;;;;0.63;0.63;;;;;;;;;;5152207;27;20270;-65
2021/12/22 09:39:31;;;;;;;0.80;0.80;;;;;;;;;;5168668;27;20242;-66
2021/12/22 09:42:18;;;;;;;0.70;0.70;;;;;;;;;;5153949;27;20289;-65
2021/12/22 09:45:06;;;;;;;0.70;0.70;;;;;;;;;;5162393;27;20204;-65
2021/12/22 09:48:15;;;;;;;0.67;0.67;;;;;;;;;;5167004;27;20197;-65
2021/12/22 09:54:10;;;;;;;0.70;0.70;;;;;;;;;;5144845;27;20693;-64
2021/12/22 09:56:59;;;;;;;0.60;0.60;;;;;;;;;;5151128;27;20732;-65
2021/12/22 09:59:47;;;;;;;0.97;0.97;;;;;;;;;;5154648;27;20212;-65
2021/12/22 10:02:34;;;;;;;0.60;0.60;;;;;;;;;;5157312;27;20299;-65
2021/12/22 10:05:21;;;;;;;1.00;1.00;;;;;;;;;;5160786;27;20220;-64
2021/12/22 10:08:11;;;;;;;0.50;0.50;;;;;;;;;;5156878;27;20261;-65
2021/12/22 10:11:03;;;;;;;0.60;0.60;;;;;;;;;;5147057;27;20292;-65
2021/12/22 10:13:52;;;;;;;0.60;0.60;;;;;;;;;;5161331;27;20216;-65
2021/12/22 10:16:46;;;;;;;0.70;0.70;;;;;;;;;;5153868;27;20285;-65
2021/12/22 10:19:33;;;;;;;0.63;0.63;;;;;;;;;;5160362;27;20262;-65
2021/12/22 10:22:20;;;;;;;0.53;0.53;;;;;;;;;;5165987;27;20229;-66
2021/12/22 10:25:11;;;;;;;0.60;0.60;;;;;;;;;;5151732;27;20256;-65
2021/12/22 10:28:02;;;;;;;0.57;0.57;;;;;;;;;;5149396;27;20201;-65
2021/12/22 10:30:56;;;;;;;1.13;0.77;;;;;;;;;;5166819;27;20212;-65
2021/12/22 10:33:44;;;;;;;0.80;0.80;;;;;;;;;;5151777;27;20205;-65
2021/12/22 10:36:44;;;;;;;0.60;0.60;;;;;;;;;;5157944;27;20549;-65
2021/12/22 10:39:33;;;;;;;0.70;0.70;;;;;;;;;;5155831;27;20209;-66
2021/12/22 10:42:20;;;;;;;1.17;0.63;;;;;;;;;;5149882;27;20213;-65
2021/12/22 10:45:12;;;;;;;0.87;0.87;;;;;;;;;;5153845;27;20194;-64
2021/12/22 10:51:10;;;;;;;1.27;0.70;;;;;;;;;;5153270;27;20201;-65
2021/12/22 10:53:57;;;;;;;0.90;0.90;;;;;;;;;;5153686;27;20328;-65
2021/12/22 10:56:46;;;;;;;0.87;0.87;;;;;;;;;;5164393;27;20352;-65
2021/12/22 10:59:42;;;;;;;0.93;0.93;;;;;;;;;;5149855;27;20204;-65
2021/12/22 11:02:35;;;;;;;1.00;1.00;;;;;;;;;;5148200;27;20264;-66
2021/12/22 11:05:28;;;;;;;1.17;1.17;;;;;;;;;;5165524;27;20220;-65
2021/12/22 11:08:19;;;;;;;0.90;0.90;;;;;;;;;;5147641;27;20428;-65
2021/12/22 11:11:14;;;;;;;1.27;0.80;;;;;;;;;;5146858;27;20212;-65
2021/12/22 11:14:11;;;;;;;1.00;1.00;;;;;;;;;;5157347;27;20667;-65
2021/12/22 11:17:04;;;;;;;1.17;0.90;;;;;;;;;;5149560;27;20691;-64
2021/12/22 11:19:57;;;;;;;0.83;0.83;;;;;;;;;;5149065;27;20213;-65
2021/12/22 11:22:52;;;;;;;0.80;0.80;;;;;;;;;;5167872;27;20222;-65
2021/12/22 11:25:40;;;;;;;0.83;0.83;;;;;;;;;;5153912;27;20213;-65
2021/12/22 11:28:27;;;;;;;0.80;0.80;;;;;;;;;;5158639;27;20687;-65
2021/12/22 11:31:14;;;;;;;0.60;0.60;;;;;;;;;;5168073;27;20208;-66
2021/12/22 11:34:01;;;;;;;0.90;0.90;;;;;;;;;;5152860;27;20671;-65
2021/12/22 11:36:50;;;;;;;0.93;0.80;;;;;;;;;;5151485;27;20305;-65
2021/12/22 11:39:39;;;;;;;0.87;0.83;;;;;;;;;;5158838;27;20254;-65
2021/12/22 11:42:31;;;;;;;0.57;0.57;;;;;;;;;;5151893;27;20204;-64
2021/12/22 11:45:19;;;;;;;0.83;0.83;;;;;;;;;;5162153;27;20201;-65
2021/12/22 11:48:06;;;;;;;0.90;0.90;;;;;;;;;;5149499;27;20289;-65
2021/12/22 11:50:53;;;;;;;1.17;1.17;;;;;;;;;;5147580;27;20676;-65
2021/12/22 11:53:51;;;;;;;1.10;1.10;;;;;;;;;;5165078;27;20216;-65
2021/12/22 11:56:41;;;;;;;1.50;1.40;;;;;;;;;;5161298;27;20275;-66
2021/12/22 11:59:35;;;;;;;1.50;1.50;;;;;;;;;;5153294;27;20232;-65
2021/12/22 12:02:25;;;;;;;1.80;1.70;;;;;;;;;;5165981;27;20207;-65
2021/12/22 12:05:17;;;;;;;1.43;1.43;;;;;;;;;;5153692;27;20708;-65
2021/12/22 12:08:17;;;;;;;1.40;1.40;;;;;;;;;;5151757;27;20285;-65
2021/12/22 12:11:04;;;;;;;1.43;1.43;;;;;;;;;;5144744;27;21262;-65
2021/12/22 12:13:56;;;;;;;1.40;1.40;;;;;;;;;;5158460;27;20212;-65
2021/12/22 12:23:12;;;;;;;1.30;1.30;;;;;;;;;;5164350;27;20223;-65
2021/12/22 12:26:02;;;;;;;1.30;1.30;;;;;;;;;;5152952;27;20232;-65
2021/12/22 12:28:50;;;;;;;1.40;1.40;;;;;;;;;;5154559;27;20231;-65
2021/12/22 12:31:41;;;;;;;1.30;1.30;;;;;;;;;;5154727;27;20586;-64
2021/12/22 12:34:28;;;;;;;1.20;1.20;;;;;;;;;;5154385;27;20572;-65
2021/12/22 12:37:53;;;;;;;1.40;1.40;;;;;;;;;;5151138;27;20206;-66
2021/12/22 12:41:12;;;;;;;1.40;1.30;;;;;;;;;;5136331;27;20705;-65
2021/12/22 12:44:07;;;;;;;1.40;1.40;;;;;;;;;;5165523;27;20661;-65
2021/12/22 12:46:54;;;;;;;1.30;1.30;;;;;;;;;;5151883;27;20289;-65
2021/12/22 12:49:43;;;;;;;1.47;1.47;;;;;;;;;;5167575;27;20283;-65
2021/12/22 12:52:31;;;;;;;1.30;1.30;;;;;;;;;;5153327;27;20251;-65
2021/12/22 12:55:19;;;;;;;1.37;1.37;;;;;;;;;;5151064;27;20704;-65
2021/12/22 12:58:28;;;;;;;1.10;1.10;;;;;;;;;;5137139;27;20674;-64
2021/12/22 13:01:15;;;;;;;1.10;1.10;;;;;;;;;;5167545;27;20238;-65
2021/12/22 13:04:02;;;;;;;1.20;1.20;;;;;;;;;;5152848;27;20245;-65
2021/12/22 13:06:49;;;;;;;1.20;1.10;;;;;;;;;;5151606;27;20345;-65
2021/12/22 13:09:39;;;;;;;1.60;1.17;;;;;;;;;;5152318;27;20737;-65
2021/12/22 13:12:59;;;;;;;1.20;1.20;;;;;;;;;;5150422;27;20218;-65
2021/12/22 13:15:49;;;;;;;1.07;1.00;;;;;;;;;;5140924;27;20212;-66
2021/12/22 13:18:37;;;;;;;1.20;1.20;;;;;;;;;;5167097;27;20211;-65
2021/12/22 13:21:27;;;;;;;1.10;1.10;;;;;;;;;;5150977;27;20256;-65
2021/12/22 13:24:19;;;;;;;1.00;1.00;;;;;;;;;;5164220;27;20269;-65
2021/12/22 13:27:06;;;;;;;0.90;0.90;;;;;;;;;;5155783;27;20619;-65
2021/12/22 13:30:05;;;;;;;1.30;1.20;;;;;;;;;;5155542;27;20274;-65
2021/12/22 13:32:59;;;;;;;1.10;1.10;;;;;;;;;;5144285;27;20212;-65
2021/12/22 13:35:49;;;;;;;0.90;0.90;;;;;;;;;;5151230;27;20267;-65
2021/12/22 13:38:38;;;;;;;1.00;1.00;;;;;;;;;;5150759;27;20208;-64
2021/12/22 13:41:28;;;;;;;1.10;1.03;;;;;;;;;;5162402;27;20209;-65
2021/12/22 13:44:15;;;;;;;1.07;1.07;;;;;;;;;;5152691;27;20201;-65
2021/12/22 13:47:02;;;;;;;1.00;1.00;;;;;;;;;;5152036;27;20206;-65
2021/12/22 13:49:50;;;;;;;0.80;0.80;;;;;;;;;;5166747;27;20319;-65
2021/12/22 13:52:37;;;;;;;1.00;1.00;;;;;;;;;;5151427;27;20201;-65
2021/12/22 13:55:24;;;;;;;1.10;1.10;;;;;;;;;;5148130;27;20256;-67
2021/12/22 13:58:30;;;;;;;1.33;1.23;;;;;;;;;;5151331;27;20208;-65
2021/12/22 14:01:30;;;;;;;1.60;1.50;;;;;;;;;;5165138;27;20207;-67
2021/12/22 14:04:18;;;;;;;1.40;1.40;;;;;;;;;;5145809;27;20342;-65
2021/12/22 14:07:11;;;;;;;2.50;2.40;;;;;;;;;;5151096;27;20288;-65
2021/12/22 14:09:58;;;;;;;3.40;3.20;;;;;;;;;;5150706;27;20680;-65
2021/12/22 14:12:58;;;;;;;2.93;2.77;;;;;;;;;;5151903;27;20291;-67
2021/12/22 14:15:45;;;;;;;3.47;3.17;;;;;;;;;;5150182;27;20225;-65
2021/12/22 14:18:35;;;;;;;3.10;2.90;;;;;;;;;;5163555;27;20328;-65
2021/12/22 14:21:22;;;;;;;3.10;2.90;;;;;;;;;;5151393;27;20216;-65
2021/12/22 14:24:13;;;;;;;3.40;3.20;;;;;;;;;;5164278;27;20687;-64
2021/12/22 14:27:01;;;;;;;2.80;2.70;;;;;;;;;;5158489;27;20209;-65
2021/12/22 14:29:50;;;;;;;2.70;2.60;;;;;;;;;;5149588;27;20677;-65
2021/12/22 14:32:38;;;;;;;2.80;2.67;;;;;;;;;;5159635;27;20330;-65
2021/12/22 14:35:27;;;;;;;2.67;2.57;;;;;;;;;;5158887;27;20233;-66
2021/12/22 14:38:18;;;;;;;2.50;2.40;;;;;;;;;;5149448;27;20863;-65
2021/12/22 14:41:08;;;;;;;2.70;2.60;;;;;;;;;;5138911;27;20236;-65
2021/12/22 14:43:55;;;;;;;2.77;2.67;;;;;;;;;;5156593;27;20211;-65
2021/12/22 14:46:42;;;;;;;2.60;2.50;;;;;;;;;;5155542;27;20201;-65
2021/12/22 14:49:29;;;;;;;2.63;2.43;;;;;;;;;;5162184;27;20220;-66
2021/12/22 14:52:17;;;;;;;2.67;2.30;;;;;;;;;;5148911;27;20211;-65
2021/12/22 14:55:04;;;;;;;2.50;2.30;;;;;;;;;;5149244;27;20211;-65
2021/12/22 14:57:53;;;;;;;2.27;2.17;;;;;;;;;;5168848;27;20311;-64
2021/12/22 15:00:43;;;;;;;2.63;1.83;;;;;;;;;;5148081;27;20197;-66
2021/12/22 15:03:30;;;;;;;2.00;1.90;;;;;;;;;;5141223;27;20686;-65
2021/12/22 15:06:20;;;;;;;1.70;1.60;;;;;;;;;;5152982;27;20235;-64
2021/12/22 15:09:08;;;;;;;1.90;1.80;;;;;;;;;;5147424;27;20223;-65
2021/12/22 15:11:56;;;;;;;2.00;1.90;;;;;;;;;;5149929;27;20545;-65
2021/12/22 15:14:44;;;;;;;1.83;1.73;;;;;;;;;;5150887;27;20239;-65
2021/12/22 15:17:31;;;;;;;2.80;2.07;;;;;;;;;;5148340;27;20330;-66
2021/12/22 15:20:18;;;;;;;1.60;1.60;;;;;;;;;;5149815;27;20258;-62
2021/12/22 15:23:06;;;;;;;1.63;1.57;;;;;;;;;;5163775;27;20208;-62
2021/12/22 15:25:53;;;;;;;1.90;1.80;;;;;;;;;;5150416;27;20208;-65
2021/12/22 15:28:41;;;;;;;1.50;1.50;;;;;;;;;;5155169;27;20303;-65
2021/12/22 15:31:32;;;;;;;1.53;1.50;;;;;;;;;;5149786;27;20236;-65
2021/12/22 15:34:19;;;;;;;1.70;1.60;;;;;;;;;;5148523;27;20291;-65
2021/12/22 15:37:06;;;;;;;1.70;1.60;;;;;;;;;;5142079;27;20687;-65
2021/12/22 15:39:53;;;;;;;1.93;1.53;;;;;;;;;;5155762;27;20226;-65
2021/12/22 15:42:40;;;;;;;1.30;1.30;;;;;;;;;;5146015;27;20346;-65
2021/12/22 15:45:27;;;;;;;3.13;1.87;;;;;;;;;;5133295;27;20197;-65
2021/12/22 15:48:16;;;;;;;2.13;1.80;;;;;;;;;;5156611;27;20209;-65
2021/12/22 15:51:03;;;;;;;1.67;1.67;;;;;;;;;;5153341;27;20582;-65
2021/12/22 15:53:50;;;;;;;2.70;1.60;;;;;;;;;;5159410;27;20270;-65
2021/12/22 15:56:37;;;;;;;1.97;1.80;;;;;;;;;;5158384;27;20255;-64
2021/12/22 15:59:24;;;;;;;1.93;1.53;;;;;;;;;;5157787;27;20238;-65
2021/12/22 16:02:11;;;;;;;1.93;1.83;;;;;;;;;;5167153;27;20281;-65
2021/12/22 16:04:59;;;;;;;2.00;1.90;;;;;;;;;;5148379;27;20311;-65
2021/12/22 16:07:47;;;;;;;1.83;1.80;;;;;;;;;;5158760;27;20204;-65
2021/12/22 16:10:34;;;;;;;2.33;2.23;;;;;;;;;;5149723;27;20279;-66
2021/12/22 16:13:21;;;;;;;2.23;2.13;;;;;;;;;;5151362;27;20334;-65
2021/12/22 16:16:08;;;;;;;2.23;2.07;;;;;;;;;;5161458;27;20212;-65
2021/12/22 16:18:55;;;;;;;2.23;2.13;;;;;;;;;;5160819;27;20215;-65
2021/12/22 16:21:43;;;;;;;2.10;2.00;;;;;;;;;;5150893;27;20245;-65
2021/12/22 16:24:30;;;;;;;2.10;2.00;;;;;;;;;;5148064;27;20197;-65
2021/12/22 16:27:17;;;;;;;2.67;2.47;;;;;;;;;;5149963;27;20686;-65
2021/12/22 16:30:06;;;;;;;2.00;1.90;;;;;;;;;;5148067;27;20378;-65
2021/12/22 16:32:53;;;;;;;2.20;2.10;;;;;;;;;;5140550;27;20232;-65
2021/12/22 16:35:40;;;;;;;2.80;2.00;;;;;;;;;;5148796;27;20354;-66
2021/12/22 16:38:28;;;;;;;1.80;1.70;;;;;;;;;;5148980;27;20446;-65
2021/12/22 16:41:15;;;;;;;2.00;1.90;;;;;;;;;;5167139;27;20243;-67
2021/12/22 16:44:02;;;;;;;1.90;1.80;;;;;;;;;;5156872;27;20245;-65
2021/12/22 16:46:49;;;;;;;2.10;2.00;;;;;;;;;;5159844;27;20247;-65
2021/12/22 16:49:36;;;;;;;1.60;1.50;;;;;;;;;;5172351;27;20678;-65
2021/12/22 16:52:23;;;;;;;1.77;1.67;;;;;;;;;;5151222;27;20690;-65
2021/12/22 16:55:12;;;;;;;1.83;1.73;;;;;;;;;;5152406;27;20209;-65
2021/12/22 16:58:01;;;;;;;2.07;1.97;;;;;;;;;;5153480;27;20227;-65
2021/12/22 17:00:49;;;;;;;2.30;2.10;;;;;;;;;;5154037;27;20200;-65
2021/12/22 17:03:36;;;;;;;3.10;2.90;;;;;;;;;;5162359;27;20751;-65
2021/12/22 17:06:24;;;;;;;3.93;3.53;;;;;;;;;;5159565;27;20660;-65
2021/12/22 17:09:11;;;;;;;4.83;3.90;;;;;;;;;;5146084;27;20208;-65
2021/12/22 17:11:59;;;;;;;6.87;4.23;;;;;;;;;;5142380;27;20205;-65
2021/12/22 17:14:47;;;;;;;5.67;4.03;;;;;;;;;;5158724;27;20253;-65